Terminal Aerodrome Forecast
Issued by NWS

Home | Current Version | Previous Version | Text Only | Print | Product List | Glossary On
Versions: 1 2 3 4 5 6 7 8 9 10 11 12 13 14 15 16 17 18 19 20 21 22 23 24 25 26 27 28
000
FTUS44 KHGX 201120
TAFIAH
TAF
KIAH 201120Z 2012/2118 14005KT P6SM SCT020 SCT250
      TEMPO 2013/2015 BKN020
     FM201500 14010KT P6SM SCT030 SCT250
     FM202200 14011KT P6SM VCTS SCT040CB BKN250
     FM210200 14006KT P6SM SCT050 BKN250=

USA.gov is the U.S. government's official web portal to all federal, state and local government web resources and services.